sensor_id;sensor_type;location;lat;lon;timestamp;pressure;altitude;pressure_sealevel;temperature;humidity
22662;BME280;11497;52.222;21.246;2023-04-30T00:01:44;100128.22;;;10.63;67.75
22662;BME280;11497;52.222;21.246;2023-04-30T00:04:12;100121.41;;;10.82;67.15
22662;BME280;11497;52.222;21.246;2023-04-30T00:06:40;100125.63;;;10.85;66.72
22662;BME280;11497;52.222;21.246;2023-04-30T00:09:08;100114.31;;;10.84;66.65
22662;BME280;11497;52.222;21.246;2023-04-30T00:11:36;100112.47;;;10.86;66.01
22662;BME280;11497;52.222;21.246;2023-04-30T00:14:04;100109.63;;;10.92;65.59
22662;BME280;11497;52.222;21.246;2023-04-30T00:16:32;100111.28;;;10.95;65.65
22662;BME280;11497;52.222;21.246;2023-04-30T00:19:00;100113.59;;;10.81;65.87
22662;BME280;11497;52.222;21.246;2023-04-30T00:21:28;100114.44;;;10.81;66.01
22662;BME280;11497;52.222;21.246;2023-04-30T00:23:56;100110.78;;;10.85;66.00
22662;BME280;11497;52.222;21.246;2023-04-30T00:26:24;100116.56;;;10.93;65.68
22662;BME280;11497;52.222;21.246;2023-04-30T00:28:52;100123.44;;;10.74;66.24
22662;BME280;11497;52.222;21.246;2023-04-30T00:31:20;100120.16;;;10.69;66.66
22662;BME280;11497;52.222;21.246;2023-04-30T00:33:48;100119.69;;;10.81;67.41
22662;BME280;11497;52.222;21.246;2023-04-30T00:36:15;100118.09;;;10.77;68.50
22662;BME280;11497;52.222;21.246;2023-04-30T00:38:43;100128.69;;;10.74;68.99
22662;BME280;11497;52.222;21.246;2023-04-30T00:41:11;100125.69;;;10.83;70.26
22662;BME280;11497;52.222;21.246;2023-04-30T00:43:40;100130.50;;;10.72;70.98
22662;BME280;11497;52.222;21.246;2023-04-30T00:46:07;100130.72;;;10.66;72.32
22662;BME280;11497;52.222;21.246;2023-04-30T00:48:35;100127.72;;;10.53;74.94
22662;BME280;11497;52.222;21.246;2023-04-30T00:51:03;100131.28;;;10.51;76.47
22662;BME280;11497;52.222;21.246;2023-04-30T00:53:33;100127.66;;;10.55;77.00
22662;BME280;11497;52.222;21.246;2023-04-30T00:56:01;100128.03;;;10.44;77.15
22662;BME280;11497;52.222;21.246;2023-04-30T00:58:29;100137.00;;;10.39;78.32
22662;BME280;11497;52.222;21.246;2023-04-30T01:00:57;100134.31;;;10.40;79.81
22662;BME280;11497;52.222;21.246;2023-04-30T01:03:27;100138.75;;;10.61;79.39
22662;BME280;11497;52.222;21.246;2023-04-30T01:05:55;100136.75;;;10.45;79.62
22662;BME280;11497;52.222;21.246;2023-04-30T01:08:23;100135.94;;;10.43;80.24
22662;BME280;11497;52.222;21.246;2023-04-30T01:13:31;100121.97;;;10.44;80.33
22662;BME280;11497;52.222;21.246;2023-04-30T01:16:12;100134.19;;;10.43;80.23
22662;BME280;11497;52.222;21.246;2023-04-30T01:19:01;100137.13;;;10.36;80.29
22662;BME280;11497;52.222;21.246;2023-04-30T01:21:32;100140.97;;;10.25;80.60
22662;BME280;11497;52.222;21.246;2023-04-30T01:27:06;100141.66;;;10.30;81.41
22662;BME280;11497;52.222;21.246;2023-04-30T01:29:41;100132.72;;;10.11;82.38
22662;BME280;11497;52.222;21.246;2023-04-30T01:32:10;100140.72;;;10.07;83.09
22662;BME280;11497;52.222;21.246;2023-04-30T01:34:38;100140.06;;;10.00;83.76
22662;BME280;11497;52.222;21.246;2023-04-30T01:53:45;100150.78;;;9.94;86.16
22662;BME280;11497;52.222;21.246;2023-04-30T01:56:24;100147.34;;;10.17;87.31
22662;BME280;11497;52.222;21.246;2023-04-30T01:58:54;100147.66;;;10.08;88.23
22662;BME280;11497;52.222;21.246;2023-04-30T02:01:30;100146.81;;;10.07;88.21
22662;BME280;11497;52.222;21.246;2023-04-30T02:03:58;100148.72;;;10.02;87.99
22662;BME280;11497;52.222;21.246;2023-04-30T02:06:27;100150.72;;;9.95;88.48
22662;BME280;11497;52.222;21.246;2023-04-30T02:08:57;100149.78;;;9.96;87.89
22662;BME280;11497;52.222;21.246;2023-04-30T02:11:29;100153.38;;;9.94;88.53
22662;BME280;11497;52.222;21.246;2023-04-30T02:13:57;100154.06;;;9.99;89.16
22662;BME280;11497;52.222;21.246;2023-04-30T02:16:25;100152.34;;;9.98;89.61
22662;BME280;11497;52.222;21.246;2023-04-30T02:18:53;100156.66;;;9.99;90.01
22662;BME280;11497;52.222;21.246;2023-04-30T02:21:21;100156.72;;;9.97;89.62
22662;BME280;11497;52.222;21.246;2023-04-30T02:23:49;100157.38;;;10.04;90.00
22662;BME280;11497;52.222;21.246;2023-04-30T02:26:17;100154.91;;;10.26;90.38
22662;BME280;11497;52.222;21.246;2023-04-30T02:28:44;100158.47;;;10.23;90.72
22662;BME280;11497;52.222;21.246;2023-04-30T02:31:12;100164.00;;;10.14;91.26
22662;BME280;11497;52.222;21.246;2023-04-30T02:33:40;100152.78;;;10.11;91.55
22662;BME280;11497;52.222;21.246;2023-04-30T02:36:08;100165.69;;;10.15;92.26
22662;BME280;11497;52.222;21.246;2023-04-30T02:38:36;100171.34;;;10.03;92.94
22662;BME280;11497;52.222;21.246;2023-04-30T02:41:04;100163.56;;;10.01;93.47
22662;BME280;11497;52.222;21.246;2023-04-30T02:43:31;100172.25;;;10.02;93.69
22662;BME280;11497;52.222;21.246;2023-04-30T02:46:00;100169.31;;;10.11;94.30
22662;BME280;11497;52.222;21.246;2023-04-30T02:48:27;100170.50;;;10.02;94.25
22662;BME280;11497;52.222;21.246;2023-04-30T02:50:55;100169.75;;;9.99;94.72
22662;BME280;11497;52.222;21.246;2023-04-30T02:53:23;100174.88;;;10.02;94.93
22662;BME280;11497;52.222;21.246;2023-04-30T02:55:51;100177.38;;;10.05;95.32
22662;BME280;11497;52.222;21.246;2023-04-30T02:58:19;100174.88;;;10.02;95.67
22662;BME280;11497;52.222;21.246;2023-04-30T03:00:47;100185.22;;;10.05;96.08
22662;BME280;11497;52.222;21.246;2023-04-30T03:03:15;100182.66;;;10.04;96.39
22662;BME280;11497;52.222;21.246;2023-04-30T03:05:43;100183.41;;;10.07;97.38
22662;BME280;11497;52.222;21.246;2023-04-30T03:08:11;100183.19;;;10.13;98.19
22662;BME280;11497;52.222;21.246;2023-04-30T03:10:39;100183.03;;;10.19;98.53
22662;BME280;11497;52.222;21.246;2023-04-30T03:13:07;100197.28;;;10.36;99.36
22662;BME280;11497;52.222;21.246;2023-04-30T03:15:35;100198.09;;;10.38;99.67
22662;BME280;11497;52.222;21.246;2023-04-30T03:18:03;100201.03;;;10.52;100.00
22662;BME280;11497;52.222;21.246;2023-04-30T03:20:31;100202.31;;;10.65;100.00
22662;BME280;11497;52.222;21.246;2023-04-30T03:22:59;100203.00;;;10.70;100.00
22662;BME280;11497;52.222;21.246;2023-04-30T03:25:27;100214.03;;;10.78;100.00
22662;BME280;11497;52.222;21.246;2023-04-30T03:27:55;100211.16;;;10.84;100.00
22662;BME280;11497;52.222;21.246;2023-04-30T03:30:25;100214.63;;;10.85;100.00
22662;BME280;11497;52.222;21.246;2023-04-30T03:32:53;100220.72;;;10.85;100.00
22662;BME280;11497;52.222;21.246;2023-04-30T03:35:21;100221.41;;;10.90;100.00
22662;BME280;11497;52.222;21.246;2023-04-30T03:37:48;100227.00;;;11.05;100.00
22662;BME280;11497;52.222;21.246;2023-04-30T03:40:17;100221.72;;;11.06;100.00
22662;BME280;11497;52.222;21.246;2023-04-30T03:42:45;100229.38;;;11.11;100.00
22662;BME280;11497;52.222;21.246;2023-04-30T03:45:14;100235.88;;;11.00;100.00
22662;BME280;11497;52.222;21.246;2023-04-30T03:47:42;100242.25;;;10.93;100.00
22662;BME280;11497;52.222;21.246;2023-04-30T03:50:11;100245.44;;;11.02;100.00
22662;BME280;11497;52.222;21.246;2023-04-30T03:52:39;100251.88;;;10.93;100.00
22662;BME280;11497;52.222;21.246;2023-04-30T03:55:07;100256.47;;;10.86;100.00
22662;BME280;11497;52.222;21.246;2023-04-30T03:57:35;100259.63;;;10.73;100.00
22662;BME280;11497;52.222;21.246;2023-04-30T04:00:03;100254.31;;;10.74;100.00
22662;BME280;11497;52.222;21.246;2023-04-30T04:02:39;100269.47;;;10.89;100.00
22662;BME280;11497;52.222;21.246;2023-04-30T04:05:10;100266.63;;;10.72;100.00
22662;BME280;11497;52.222;21.246;2023-04-30T04:07:38;100263.19;;;10.70;100.00
22662;BME280;11497;52.222;21.246;2023-04-30T04:10:06;100267.56;;;10.70;100.00
22662;BME280;11497;52.222;21.246;2023-04-30T04:12:34;100269.13;;;10.50;100.00
22662;BME280;11497;52.222;21.246;2023-04-30T04:15:02;100265.53;;;10.53;99.95
22662;BME280;11497;52.222;21.246;2023-04-30T04:17:30;100276.97;;;10.50;99.15
22662;BME280;11497;52.222;21.246;2023-04-30T04:19:58;100275.00;;;10.57;98.31
22662;BME280;11497;52.222;21.246;2023-04-30T04:22:26;100277.50;;;10.60;97.88
22662;BME280;11497;52.222;21.246;2023-04-30T04:24:54;100283.59;;;10.60;96.87
22662;BME280;11497;52.222;21.246;2023-04-30T04:27:23;100290.50;;;10.63;95.62
22662;BME280;11497;52.222;21.246;2023-04-30T04:29:52;100298.03;;;10.72;95.49
22662;BME280;11497;52.222;21.246;2023-04-30T04:32:21;100306.78;;;10.71;94.78
22662;BME280;11497;52.222;21.246;2023-04-30T04:34:50;100308.75;;;10.64;92.60
22662;BME280;11497;52.222;21.246;2023-04-30T04:37:20;100309.63;;;10.65;90.91
22662;BME280;11497;52.222;21.246;2023-04-30T04:39:49;100315.88;;;10.61;88.80
22662;BME280;11497;52.222;21.246;2023-04-30T04:42:18;100319.69;;;10.51;87.34
22662;BME280;11497;52.222;21.246;2023-04-30T04:44:47;100335.25;;;10.55;87.24
22662;BME280;11497;52.222;21.246;2023-04-30T04:47:16;100335.09;;;10.60;86.40
22662;BME280;11497;52.222;21.246;2023-04-30T04:49:48;100342.53;;;10.46;85.20
22662;BME280;11497;52.222;21.246;2023-04-30T04:52:16;100360.06;;;10.44;83.99
22662;BME280;11497;52.222;21.246;2023-04-30T04:54:44;100360.06;;;10.44;82.47
22662;BME280;11497;52.222;21.246;2023-04-30T04:57:12;100359.47;;;10.36;82.47
22662;BME280;11497;52.222;21.246;2023-04-30T04:59:40;100365.88;;;10.52;80.65
22662;BME280;11497;52.222;21.246;2023-04-30T05:02:07;100375.06;;;10.39;80.13
22662;BME280;11497;52.222;21.246;2023-04-30T05:04:35;100379.41;;;10.40;79.40
22662;BME280;11497;52.222;21.246;2023-04-30T05:07:03;100369.09;;;10.35;79.83
22662;BME280;11497;52.222;21.246;2023-04-30T05:09:31;100368.50;;;10.52;78.53
22662;BME280;11497;52.222;21.246;2023-04-30T05:11:59;100380.78;;;10.50;77.80
22662;BME280;11497;52.222;21.246;2023-04-30T05:14:27;100391.34;;;10.47;77.30
22662;BME280;11497;52.222;21.246;2023-04-30T05:16:54;100383.31;;;10.53;76.98
22662;BME280;11497;52.222;21.246;2023-04-30T05:19:22;100396.28;;;10.56;76.22
22662;BME280;11497;52.222;21.246;2023-04-30T05:21:50;100386.63;;;10.58;75.13
22662;BME280;11497;52.222;21.246;2023-04-30T05:24:18;100403.72;;;10.68;74.78
22662;BME280;11497;52.222;21.246;2023-04-30T05:26:46;100403.84;;;10.65;74.25
22662;BME280;11497;52.222;21.246;2023-04-30T05:29:14;100409.13;;;10.63;74.26
22662;BME280;11497;52.222;21.246;2023-04-30T05:31:42;100416.84;;;10.93;73.76
22662;BME280;11497;52.222;21.246;2023-04-30T05:34:10;100416.31;;;11.08;72.88
22662;BME280;11497;52.222;21.246;2023-04-30T05:36:38;100419.78;;;11.09;72.27
22662;BME280;11497;52.222;21.246;2023-04-30T05:39:06;100426.75;;;11.33;72.06
22662;BME280;11497;52.222;21.246;2023-04-30T05:41:33;100429.69;;;11.72;70.25
22662;BME280;11497;52.222;21.246;2023-04-30T05:44:01;100439.22;;;11.75;69.16
22662;BME280;11497;52.222;21.246;2023-04-30T05:46:31;100433.94;;;11.99;68.91
22662;BME280;11497;52.222;21.246;2023-04-30T05:48:59;100436.44;;;12.24;67.63
22662;BME280;11497;52.222;21.246;2023-04-30T05:51:27;100445.56;;;12.38;67.32
22662;BME280;11497;52.222;21.246;2023-04-30T05:53:56;100449.69;;;12.65;66.64
22662;BME280;11497;52.222;21.246;2023-04-30T05:56:23;100446.59;;;12.97;65.40
22662;BME280;11497;52.222;21.246;2023-04-30T05:58:52;100449.34;;;13.15;64.10
22662;BME280;11497;52.222;21.246;2023-04-30T06:01:19;100455.81;;;13.28;63.65
22662;BME280;11497;52.222;21.246;2023-04-30T06:03:47;100451.78;;;13.19;62.47
22662;BME280;11497;52.222;21.246;2023-04-30T06:06:15;100451.56;;;13.44;62.21
22662;BME280;11497;52.222;21.246;2023-04-30T06:08:43;100461.69;;;13.53;61.99
22662;BME280;11497;52.222;21.246;2023-04-30T06:11:12;100459.16;;;13.71;61.62
22662;BME280;11497;52.222;21.246;2023-04-30T06:13:40;100465.81;;;13.59;60.77
22662;BME280;11497;52.222;21.246;2023-04-30T06:16:08;100457.00;;;13.41;60.42
22662;BME280;11497;52.222;21.246;2023-04-30T06:18:36;100470.97;;;13.21;59.89
22662;BME280;11497;52.222;21.246;2023-04-30T06:21:04;100470.84;;;13.24;59.73
22662;BME280;11497;52.222;21.246;2023-04-30T06:23:32;100476.84;;;13.28;58.96
22662;BME280;11497;52.222;21.246;2023-04-30T06:26:00;100482.00;;;13.50;58.18
22662;BME280;11497;52.222;21.246;2023-04-30T06:28:28;100484.34;;;13.37;57.47
22662;BME280;11497;52.222;21.246;2023-04-30T06:30:56;100477.59;;;13.50;57.39
22662;BME280;11497;52.222;21.246;2023-04-30T06:33:24;100476.72;;;13.89;57.31
22662;BME280;11497;52.222;21.246;2023-04-30T06:35:52;100476.50;;;14.31;56.22
22662;BME280;11497;52.222;21.246;2023-04-30T06:38:22;100477.53;;;15.01;54.01
22662;BME280;11497;52.222;21.246;2023-04-30T06:40:50;100481.78;;;15.88;52.09
22662;BME280;11497;52.222;21.246;2023-04-30T06:43:17;100490.69;;;16.81;49.65
22662;BME280;11497;52.222;21.246;2023-04-30T06:45:45;100490.97;;;17.79;46.47
22662;BME280;11497;52.222;21.246;2023-04-30T06:48:13;100485.69;;;18.49;43.66
22662;BME280;11497;52.222;21.246;2023-04-30T06:50:41;100490.16;;;19.02;42.06
22662;BME280;11497;52.222;21.246;2023-04-30T06:53:12;100487.69;;;19.77;40.09
22662;BME280;11497;52.222;21.246;2023-04-30T06:55:41;100485.69;;;21.25;37.22
22662;BME280;11497;52.222;21.246;2023-04-30T06:58:09;100482.84;;;22.51;35.36
22662;BME280;11497;52.222;21.246;2023-04-30T07:00:37;100491.13;;;23.74;33.27
22662;BME280;11497;52.222;21.246;2023-04-30T07:03:05;100493.25;;;24.11;31.89
22662;BME280;11497;52.222;21.246;2023-04-30T07:05:33;100493.41;;;23.79;30.19
22662;BME280;11497;52.222;21.246;2023-04-30T07:08:02;100503.34;;;25.07;28.76
22662;BME280;11497;52.222;21.246;2023-04-30T07:10:30;100499.19;;;24.14;28.12
22662;BME280;11497;52.222;21.246;2023-04-30T07:12:59;100506.22;;;24.15;28.10
22662;BME280;11497;52.222;21.246;2023-04-30T07:15:26;100500.00;;;23.54;28.40
22662;BME280;11497;52.222;21.246;2023-04-30T07:17:54;100491.94;;;23.65;28.10
22662;BME280;11497;52.222;21.246;2023-04-30T07:20:22;100497.34;;;22.80;28.67
22662;BME280;11497;52.222;21.246;2023-04-30T07:22:50;100487.72;;;22.89;29.38
22662;BME280;11497;52.222;21.246;2023-04-30T07:25:18;100505.69;;;24.21;28.43
22662;BME280;11497;52.222;21.246;2023-04-30T07:27:46;100509.44;;;25.75;27.37
22662;BME280;11497;52.222;21.246;2023-04-30T07:30:13;100527.53;;;27.10;26.13
22662;BME280;11497;52.222;21.246;2023-04-30T07:32:41;100514.25;;;27.52;24.13
22662;BME280;11497;52.222;21.246;2023-04-30T07:35:10;100518.38;;;27.90;23.50
22662;BME280;11497;52.222;21.246;2023-04-30T07:37:38;100525.41;;;26.68;23.67
22662;BME280;11497;52.222;21.246;2023-04-30T07:40:08;100514.19;;;27.62;23.53
22662;BME280;11497;52.222;21.246;2023-04-30T07:42:46;100518.06;;;28.77;22.88
22662;BME280;11497;52.222;21.246;2023-04-30T07:45:13;100530.25;;;28.98;22.32
22662;BME280;11497;52.222;21.246;2023-04-30T07:47:41;100526.44;;;28.66;21.78
22662;BME280;11497;52.222;21.246;2023-04-30T07:50:09;100531.81;;;28.50;21.95
22662;BME280;11497;52.222;21.246;2023-04-30T07:52:39;100532.06;;;28.31;21.94
22662;BME280;11497;52.222;21.246;2023-04-30T07:55:07;100528.47;;;27.88;21.92
22662;BME280;11497;52.222;21.246;2023-04-30T07:57:35;100527.63;;;28.22;21.83
22662;BME280;11497;52.222;21.246;2023-04-30T08:00:03;100532.69;;;28.59;21.48
22662;BME280;11497;52.222;21.246;2023-04-30T08:02:38;100536.53;;;28.64;21.92
22662;BME280;11497;52.222;21.246;2023-04-30T08:05:07;100529.81;;;27.92;21.80
22662;BME280;11497;52.222;21.246;2023-04-30T08:07:36;100545.16;;;28.00;22.15
22662;BME280;11497;52.222;21.246;2023-04-30T08:10:04;100551.38;;;28.26;21.63
22662;BME280;11497;52.222;21.246;2023-04-30T08:12:35;100536.34;;;28.15;21.56
22662;BME280;11497;52.222;21.246;2023-04-30T08:15:04;100545.94;;;29.27;21.00
22662;BME280;11497;52.222;21.246;2023-04-30T08:17:34;100542.03;;;29.86;20.29
22662;BME280;11497;52.222;21.246;2023-04-30T08:20:03;100539.09;;;30.51;19.84
22662;BME280;11497;52.222;21.246;2023-04-30T08:22:31;100551.78;;;30.03;19.35
22662;BME280;11497;52.222;21.246;2023-04-30T08:24:59;100555.81;;;29.91;19.08
22662;BME280;11497;52.222;21.246;2023-04-30T08:27:30;100556.53;;;28.45;19.89
22662;BME280;11497;52.222;21.246;2023-04-30T08:29:58;100549.31;;;28.62;20.62
22662;BME280;11497;52.222;21.246;2023-04-30T08:32:27;100554.00;;;29.84;19.89
22662;BME280;11497;52.222;21.246;2023-04-30T08:34:55;100554.19;;;29.25;19.88
22662;BME280;11497;52.222;21.246;2023-04-30T08:37:23;100553.53;;;29.64;19.77
22662;BME280;11497;52.222;21.246;2023-04-30T08:39:51;100549.38;;;30.56;19.49
22662;BME280;11497;52.222;21.246;2023-04-30T08:42:20;100561.75;;;31.12;19.21
22662;BME280;11497;52.222;21.246;2023-04-30T08:44:51;100562.38;;;30.21;18.75
22662;BME280;11497;52.222;21.246;2023-04-30T08:47:20;100556.56;;;28.62;18.66
22662;BME280;11497;52.222;21.246;2023-04-30T08:49:48;100566.09;;;27.44;19.46
22662;BME280;11497;52.222;21.246;2023-04-30T08:52:17;100564.69;;;27.76;20.28
22662;BME280;11497;52.222;21.246;2023-04-30T08:54:46;100558.84;;;28.83;20.14
22662;BME280;11497;52.222;21.246;2023-04-30T08:57:14;100566.22;;;28.80;19.17
22662;BME280;11497;52.222;21.246;2023-04-30T08:59:44;100567.44;;;26.32;19.94
22662;BME280;11497;52.222;21.246;2023-04-30T09:02:15;100568.91;;;24.72;21.35
22662;BME280;11497;52.222;21.246;2023-04-30T09:04:43;100569.31;;;25.08;22.11
22662;BME280;11497;52.222;21.246;2023-04-30T09:07:12;100573.31;;;25.99;22.06
22662;BME280;11497;52.222;21.246;2023-04-30T09:09:41;100577.00;;;26.62;22.43
22662;BME280;11497;52.222;21.246;2023-04-30T09:12:16;100577.22;;;26.78;21.39
22662;BME280;11497;52.222;21.246;2023-04-30T09:15:04;100580.56;;;25.79;21.78
22662;BME280;11497;52.222;21.246;2023-04-30T09:17:34;100580.44;;;26.17;22.09
22662;BME280;11497;52.222;21.246;2023-04-30T09:20:09;100586.38;;;26.11;21.68
22662;BME280;11497;52.222;21.246;2023-04-30T09:22:40;100580.16;;;24.57;21.85
22662;BME280;11497;52.222;21.246;2023-04-30T09:25:09;100566.00;;;25.81;22.28
22662;BME280;11497;52.222;21.246;2023-04-30T09:27:38;100587.03;;;25.57;21.93
22662;BME280;11497;52.222;21.246;2023-04-30T09:30:06;100593.03;;;26.07;21.49
22662;BME280;11497;52.222;21.246;2023-04-30T09:32:34;100586.53;;;26.47;20.89
22662;BME280;11497;52.222;21.246;2023-04-30T09:35:02;100590.63;;;27.06;20.58
22662;BME280;11497;52.222;21.246;2023-04-30T09:37:37;100586.94;;;26.52;20.81
22662;BME280;11497;52.222;21.246;2023-04-30T09:40:05;100581.50;;;26.89;20.28
22662;BME280;11497;52.222;21.246;2023-04-30T09:42:34;100589.34;;;26.55;20.20
22662;BME280;11497;52.222;21.246;2023-04-30T09:45:04;100593.44;;;26.12;20.10
22662;BME280;11497;52.222;21.246;2023-04-30T09:47:32;100596.09;;;25.66;19.98
22662;BME280;11497;52.222;21.246;2023-04-30T09:50:00;100589.22;;;26.00;19.86
22662;BME280;11497;52.222;21.246;2023-04-30T09:52:28;100588.72;;;25.58;20.58
22662;BME280;11497;52.222;21.246;2023-04-30T09:54:56;100591.84;;;25.15;20.53
22662;BME280;11497;52.222;21.246;2023-04-30T09:57:24;100588.34;;;25.43;20.69
22662;BME280;11497;52.222;21.246;2023-04-30T09:59:53;100590.59;;;25.38;20.53
22662;BME280;11497;52.222;21.246;2023-04-30T10:02:22;100587.91;;;25.48;20.81
22662;BME280;11497;52.222;21.246;2023-04-30T10:04:54;100587.63;;;25.03;20.88
22662;BME280;11497;52.222;21.246;2023-04-30T10:07:25;100595.25;;;25.36;20.62
22662;BME280;11497;52.222;21.246;2023-04-30T10:10:09;100589.66;;;24.80;20.52
22662;BME280;11497;52.222;21.246;2023-04-30T10:12:49;100591.28;;;24.21;19.78
22662;BME280;11497;52.222;21.246;2023-04-30T10:18:01;100594.94;;;20.63;22.70
22662;BME280;11497;52.222;21.246;2023-04-30T10:20:30;100587.47;;;19.41;23.95
22662;BME280;11497;52.222;21.246;2023-04-30T10:23:01;100594.44;;;17.90;25.11
22662;BME280;11497;52.222;21.246;2023-04-30T10:25:29;100599.09;;;17.27;25.64
22662;BME280;11497;52.222;21.246;2023-04-30T10:27:59;100610.22;;;16.71;26.16
22662;BME280;11497;52.222;21.246;2023-04-30T10:30:31;100593.78;;;16.33;26.60
22662;BME280;11497;52.222;21.246;2023-04-30T10:36:06;100595.47;;;16.67;27.75
22662;BME280;11497;52.222;21.246;2023-04-30T10:38:38;100600.44;;;16.40;27.03
22662;BME280;11497;52.222;21.246;2023-04-30T10:41:07;100586.72;;;16.00;27.55
22662;BME280;11497;52.222;21.246;2023-04-30T10:43:36;100593.72;;;15.67;28.17
22662;BME280;11497;52.222;21.246;2023-04-30T10:46:04;100593.72;;;15.67;28.29
22662;BME280;11497;52.222;21.246;2023-04-30T10:48:33;100594.13;;;15.76;29.03
22662;BME280;11497;52.222;21.246;2023-04-30T10:51:02;100595.22;;;15.72;28.35
22662;BME280;11497;52.222;21.246;2023-04-30T10:53:31;100586.91;;;15.80;28.79
22662;BME280;11497;52.222;21.246;2023-04-30T10:56:02;100597.16;;;15.69;29.57
22662;BME280;11497;52.222;21.246;2023-04-30T10:58:39;100587.59;;;15.66;29.75
22662;BME280;11497;52.222;21.246;2023-04-30T11:01:14;100586.44;;;15.89;29.59
22662;BME280;11497;52.222;21.246;2023-04-30T11:04:04;100591.47;;;15.93;28.99
22662;BME280;11497;52.222;21.246;2023-04-30T11:09:41;100606.31;;;15.61;29.61
22662;BME280;11497;52.222;21.246;2023-04-30T11:12:15;100590.41;;;15.63;30.21
22662;BME280;11497;52.222;21.246;2023-04-30T11:14:46;100599.00;;;15.67;30.09
22662;BME280;11497;52.222;21.246;2023-04-30T11:17:22;100597.16;;;15.69;30.61
22662;BME280;11497;52.222;21.246;2023-04-30T11:19:51;100598.84;;;15.87;30.76
22662;BME280;11497;52.222;21.246;2023-04-30T11:22:22;100615.00;;;15.63;30.76
22662;BME280;11497;52.222;21.246;2023-04-30T11:27:33;100617.16;;;15.73;30.74
22662;BME280;11497;52.222;21.246;2023-04-30T11:30:03;100605.53;;;15.77;30.53
22662;BME280;11497;52.222;21.246;2023-04-30T11:32:37;100603.50;;;15.82;31.17
22662;BME280;11497;52.222;21.246;2023-04-30T11:35:06;100606.69;;;15.71;31.43
22662;BME280;11497;52.222;21.246;2023-04-30T11:37:36;100612.34;;;15.81;31.25
22662;BME280;11497;52.222;21.246;2023-04-30T11:40:06;100610.66;;;15.80;30.69
22662;BME280;11497;52.222;21.246;2023-04-30T11:42:35;100613.06;;;15.84;30.13
22662;BME280;11497;52.222;21.246;2023-04-30T11:45:14;100609.09;;;15.93;30.03
22662;BME280;11497;52.222;21.246;2023-04-30T11:47:52;100620.44;;;15.95;29.94
22662;BME280;11497;52.222;21.246;2023-04-30T11:50:25;100613.75;;;15.88;29.95
22662;BME280;11497;52.222;21.246;2023-04-30T11:52:58;100618.41;;;16.00;29.55
22662;BME280;11497;52.222;21.246;2023-04-30T11:55:29;100619.56;;;15.77;29.45
22662;BME280;11497;52.222;21.246;2023-04-30T11:57:57;100613.69;;;15.72;28.26
22662;BME280;11497;52.222;21.246;2023-04-30T12:00:29;100618.25;;;15.69;28.66
22662;BME280;11497;52.222;21.246;2023-04-30T12:02:59;100623.69;;;15.66;28.75
22662;BME280;11497;52.222;21.246;2023-04-30T12:05:28;100629.44;;;15.56;28.89
22662;BME280;11497;52.222;21.246;2023-04-30T12:07:56;100640.34;;;15.49;29.85
22662;BME280;11497;52.222;21.246;2023-04-30T12:10:26;100619.47;;;15.44;29.93
22662;BME280;11497;52.222;21.246;2023-04-30T12:12:53;100632.09;;;15.56;30.09
22662;BME280;11497;52.222;21.246;2023-04-30T12:15:23;100624.84;;;15.60;30.13
22662;BME280;11497;52.222;21.246;2023-04-30T12:17:57;100630.75;;;15.82;29.83
22662;BME280;11497;52.222;21.246;2023-04-30T12:20:28;100621.50;;;15.74;29.77
22662;BME280;11497;52.222;21.246;2023-04-30T12:22:57;100621.47;;;15.58;30.19
22662;BME280;11497;52.222;21.246;2023-04-30T12:25:27;100635.09;;;15.66;30.95
22662;BME280;11497;52.222;21.246;2023-04-30T12:27:58;100613.13;;;15.66;30.65
22662;BME280;11497;52.222;21.246;2023-04-30T12:30:26;100622.31;;;15.58;29.77
22662;BME280;11497;52.222;21.246;2023-04-30T12:32:57;100630.13;;;15.60;29.46
22662;BME280;11497;52.222;21.246;2023-04-30T12:35:28;100634.56;;;15.59;29.10
22662;BME280;11497;52.222;21.246;2023-04-30T12:38:07;100634.72;;;15.56;29.04
22662;BME280;11497;52.222;21.246;2023-04-30T12:40:36;100624.03;;;15.59;29.05
22662;BME280;11497;52.222;21.246;2023-04-30T12:43:07;100614.03;;;15.47;29.17
22662;BME280;11497;52.222;21.246;2023-04-30T12:45:48;100625.28;;;15.51;28.77
22662;BME280;11497;52.222;21.246;2023-04-30T12:48:20;100619.78;;;15.55;28.73
22662;BME280;11497;52.222;21.246;2023-04-30T12:50:59;100612.34;;;15.46;29.50
22662;BME280;11497;52.222;21.246;2023-04-30T12:53:28;100621.25;;;15.44;29.67
22662;BME280;11497;52.222;21.246;2023-04-30T12:56:12;100624.84;;;15.60;29.94
22662;BME280;11497;52.222;21.246;2023-04-30T12:58:46;100629.88;;;15.47;30.03
22662;BME280;11497;52.222;21.246;2023-04-30T13:01:20;100628.03;;;15.67;30.14
22662;BME280;11497;52.222;21.246;2023-04-30T13:03:51;100628.97;;;15.66;29.60
22662;BME280;11497;52.222;21.246;2023-04-30T13:06:21;100621.03;;;15.66;29.73
22662;BME280;11497;52.222;21.246;2023-04-30T13:08:50;100634.56;;;15.59;29.45
22662;BME280;11497;52.222;21.246;2023-04-30T13:11:25;100614.41;;;15.58;29.37
22662;BME280;11497;52.222;21.246;2023-04-30T13:13:54;100615.84;;;15.64;29.21
22662;BME280;11497;52.222;21.246;2023-04-30T13:16:23;100610.31;;;15.51;28.60
22662;BME280;11497;52.222;21.246;2023-04-30T13:18:51;100606.34;;;15.43;28.48
22662;BME280;11497;52.222;21.246;2023-04-30T13:21:20;100617.44;;;15.32;28.10
22662;BME280;11497;52.222;21.246;2023-04-30T13:23:48;100613.78;;;15.35;28.60
22662;BME280;11497;52.222;21.246;2023-04-30T13:26:21;100615.72;;;15.31;28.61